Time;durP1;ratioP1;P1;durP2;ratioP2;P2;SDS_P1;SDS_P2;PMS_P1;PMS_P2;Temp;Humidity;BMP_temperature;BMP_pressure;BME280_temperature;BME280_humidity;BME280_pressure;Samples;Min_cycle;Max_cycle;Signal;HPM_P1;HPM_P2
2021/06/03 00:00:50;;;;;;;0.30;0.30;;;19.00;64.60;;;;;;5094826;28;20062;-66
2021/06/03 00:03:18;;;;;;;0.20;0.20;;;18.90;64.60;;;;;;5113306;28;20122;-65
2021/06/03 00:05:50;;;;;;;0.20;0.20;;;18.90;64.60;;;;;;5113438;28;20411;-65
2021/06/03 00:08:18;;;;;;;0.40;0.40;;;18.90;64.60;;;;;;5094561;28;20044;-65
2021/06/03 00:10:58;;;;;;;0.47;0.47;;;18.90;64.70;;;;;;5113713;28;20046;-65
2021/06/03 00:13:26;;;;;;;0.55;0.43;;;18.90;64.70;;;;;;5113520;28;20494;-66
2021/06/03 00:15:55;;;;;;;0.40;0.32;;;18.90;64.70;;;;;;5112688;28;20114;-65
2021/06/03 00:18:22;;;;;;;0.40;0.40;;;18.90;64.80;;;;;;5113550;28;20052;-66
2021/06/03 00:20:49;;;;;;;0.28;0.20;;;18.90;64.80;;;;;;5094288;28;20560;-66
2021/06/03 00:23:15;;;;;;;0.30;0.30;;;18.90;64.90;;;;;;5112969;28;20054;-65
2021/06/03 00:25:42;;;;;;;0.40;0.32;;;18.90;65.00;;;;;;5113127;28;20051;-66
2021/06/03 00:28:08;;;;;;;0.30;0.30;;;18.90;65.00;;;;;;5113196;28;20126;-66
2021/06/03 00:30:35;;;;;;;0.20;0.20;;;18.80;65.00;;;;;;5113135;28;20039;-66
2021/06/03 00:33:01;;;;;;;0.30;0.30;;;18.80;65.00;;;;;;5113211;28;20139;-65
2021/06/03 00:35:28;;;;;;;0.20;0.20;;;18.80;65.10;;;;;;5112834;28;20126;-66
2021/06/03 00:37:54;;;;;;;0.20;0.20;;;18.80;65.20;;;;;;5112831;28;20059;-65
2021/06/03 00:40:22;;;;;;;0.30;0.30;;;18.80;65.20;;;;;;5112431;28;20048;-66
2021/06/03 00:42:48;;;;;;;0.30;0.30;;;18.80;65.20;;;;;;5090524;28;20043;-65
2021/06/03 00:45:18;;;;;;;0.32;0.30;;;18.80;65.40;;;;;;5112887;28;20136;-65
2021/06/03 00:47:44;;;;;;;0.32;0.30;;;18.70;65.30;;;;;;5112952;28;20127;-66
2021/06/03 00:50:17;;;;;;;0.32;0.32;;;18.70;65.40;;;;;;5112651;28;20551;-65
2021/06/03 00:52:44;;;;;;;0.30;0.30;;;18.70;65.60;;;;;;5112239;28;20043;-65
2021/06/03 00:55:11;;;;;;;0.40;0.40;;;18.70;65.60;;;;;;5112483;28;20157;-65
2021/06/03 00:57:37;;;;;;;0.30;0.30;;;18.70;65.60;;;;;;5112014;28;20182;-66
2021/06/03 01:00:11;;;;;;;0.43;0.40;;;18.70;65.70;;;;;;5111875;28;20055;-66
2021/06/03 01:02:37;;;;;;;0.32;0.32;;;18.60;65.70;;;;;;5112472;28;20566;-66
2021/06/03 01:05:20;;;;;;;0.43;0.30;;;18.60;65.80;;;;;;5111809;28;20043;-65
2021/06/03 01:07:53;;;;;;;0.40;0.40;;;18.60;65.90;;;;;;5112290;28;20113;-66
2021/06/03 01:10:45;;;;;;;0.43;0.40;;;18.60;66.10;;;;;;5112290;28;20059;-65
2021/06/03 01:13:42;;;;;;;0.40;0.40;;;18.60;66.10;;;;;;5112550;28;20047;-66
2021/06/03 01:16:10;;;;;;;0.30;0.30;;;18.60;66.20;;;;;;5098409;28;20109;-65
2021/06/03 01:18:39;;;;;;;0.40;0.40;;;18.50;66.30;;;;;;5112144;28;20494;-66
2021/06/03 01:21:10;;;;;;;0.30;0.30;;;18.50;66.20;;;;;;5112175;28;20112;-66
2021/06/03 01:23:58;;;;;;;0.20;0.20;;;18.50;66.40;;;;;;5112685;28;20051;-66
2021/06/03 01:26:25;;;;;;;0.30;0.30;;;18.50;66.30;;;;;;5092720;28;20044;-66
2021/06/03 01:28:52;;;;;;;0.40;0.40;;;18.50;66.50;;;;;;5112027;28;20102;-65
2021/06/03 01:31:20;;;;;;;0.20;0.20;;;18.40;66.50;;;;;;5126232;28;20071;-66
2021/06/03 01:33:46;;;;;;;0.40;0.40;;;18.40;66.70;;;;;;5111860;28;20177;-66
2021/06/03 01:36:15;;;;;;;0.35;0.32;;;18.40;66.70;;;;;;5111818;28;20040;-65
2021/06/03 01:38:42;;;;;;;0.40;0.40;;;18.30;66.70;;;;;;5112225;28;20052;-66
2021/06/03 01:41:11;;;;;;;0.30;0.30;;;18.30;66.90;;;;;;5112183;28;20180;-65
2021/06/03 01:43:42;;;;;;;0.40;0.40;;;18.30;67.00;;;;;;5112303;28;20127;-65
2021/06/03 01:46:09;;;;;;;0.47;0.30;;;18.20;67.10;;;;;;5111525;28;20130;-66
2021/06/03 01:48:36;;;;;;;0.28;0.28;;;18.20;67.10;;;;;;5112031;28;20046;-65
2021/06/03 01:51:06;;;;;;;0.28;0.28;;;18.20;67.30;;;;;;5111870;28;20518;-65
2021/06/03 01:53:33;;;;;;;0.20;0.20;;;18.20;67.40;;;;;;5120584;28;20070;-65
2021/06/03 01:56:03;;;;;;;0.40;0.40;;;18.20;67.40;;;;;;5116043;28;20058;-65
2021/06/03 01:58:31;;;;;;;0.70;0.40;;;18.10;67.50;;;;;;5120354;28;20182;-65
2021/06/03 02:00:58;;;;;;;0.28;0.28;;;18.10;67.70;;;;;;5111963;28;20131;-66
2021/06/03 02:03:26;;;;;;;0.60;0.35;;;18.10;67.70;;;;;;5094347;28;20542;-65
2021/06/03 02:05:53;;;;;;;0.30;0.30;;;18.10;67.80;;;;;;5116120;28;20055;-65
2021/06/03 02:08:20;;;;;;;0.50;0.50;;;18.10;68.00;;;;;;5100816;28;20052;-65
2021/06/03 02:10:48;;;;;;;0.30;0.30;;;18.10;68.00;;;;;;5115681;28;20047;-65
2021/06/03 02:13:24;;;;;;;0.40;0.40;;;18.00;67.90;;;;;;5115675;28;20557;-66
2021/06/03 02:16:12;;;;;;;0.43;0.43;;;18.00;67.90;;;;;;5114830;28;20047;-66
2021/06/03 02:18:49;;;;;;;0.40;0.40;;;18.00;68.00;;;;;;5115566;28;20093;-65
2021/06/03 02:21:17;;;;;;;0.32;0.32;;;18.00;68.00;;;;;;5115287;28;20048;-65
2021/06/03 02:23:46;;;;;;;0.43;0.40;;;18.00;68.00;;;;;;5115639;28;20051;-65
2021/06/03 02:26:13;;;;;;;0.30;0.30;;;18.00;68.00;;;;;;5115506;28;20052;-66
2021/06/03 02:28:42;;;;;;;0.47;0.47;;;18.00;68.10;;;;;;5115316;28;20092;-65
2021/06/03 02:31:09;;;;;;;0.40;0.32;;;17.90;68.10;;;;;;5115339;28;20051;-66
2021/06/03 02:33:35;;;;;;;0.30;0.30;;;17.90;68.10;;;;;;5115831;27;20130;-65
2021/06/03 02:36:02;;;;;;;0.47;0.47;;;17.90;68.10;;;;;;5115292;28;20048;-65
2021/06/03 02:38:31;;;;;;;0.38;0.38;;;18.00;68.20;;;;;;5114785;28;20047;-65
2021/06/03 02:41:00;;;;;;;0.47;0.47;;;17.90;68.00;;;;;;5115412;28;20126;-65
2021/06/03 02:43:27;;;;;;;0.40;0.40;;;17.90;68.10;;;;;;5115345;28;20048;-65
2021/06/03 02:45:54;;;;;;;0.30;0.30;;;18.00;68.20;;;;;;5114533;28;20240;-65
2021/06/03 02:48:21;;;;;;;0.47;0.47;;;17.90;68.10;;;;;;5115026;28;20044;-65
2021/06/03 02:50:48;;;;;;;0.40;0.40;;;17.90;68.10;;;;;;5115098;28;20874;-65
2021/06/03 02:53:14;;;;;;;0.40;0.40;;;17.90;68.20;;;;;;5114722;28;20390;-65
2021/06/03 02:55:41;;;;;;;0.55;0.55;;;17.90;68.20;;;;;;5116517;27;20459;-66
2021/06/03 02:58:09;;;;;;;0.30;0.30;;;17.90;68.30;;;;;;5122820;27;20212;-66
2021/06/03 03:00:36;;;;;;;0.32;0.30;;;17.90;68.40;;;;;;5125270;27;20126;-65
2021/06/03 03:03:06;;;;;;;0.40;0.30;;;17.90;68.20;;;;;;5114978;28;20056;-68
2021/06/03 03:05:32;;;;;;;0.40;0.40;;;17.90;68.30;;;;;;5114999;28;20048;-68
2021/06/03 03:07:59;;;;;;;0.40;0.40;;;17.90;68.40;;;;;;5100181;28;20051;-68
2021/06/03 03:10:32;;;;;;;0.30;0.30;;;17.90;68.40;;;;;;5114476;28;20054;-66
2021/06/03 03:12:59;;;;;;;0.50;0.50;;;17.90;68.40;;;;;;5114965;28;20170;-66
2021/06/03 03:15:27;;;;;;;0.60;0.50;;;17.90;69.40;;;;;;5114314;28;20048;-66
2021/06/03 03:17:54;;;;;;;0.50;0.50;;;17.90;68.60;;;;;;5114486;28;20569;-65
2021/06/03 03:20:22;;;;;;;0.50;0.50;;;17.90;68.70;;;;;;5114064;28;20130;-66
2021/06/03 03:22:49;;;;;;;0.30;0.30;;;17.80;68.70;;;;;;5114272;28;20044;-66
2021/06/03 03:25:16;;;;;;;0.40;0.40;;;17.80;68.70;;;;;;5114328;28;20127;-65
2021/06/03 03:27:44;;;;;;;0.35;0.35;;;17.80;68.80;;;;;;5114421;28;20048;-65
2021/06/03 03:30:12;;;;;;;0.30;0.30;;;17.80;68.70;;;;;;5114103;28;20147;-66
2021/06/03 03:32:39;;;;;;;0.50;0.50;;;17.80;69.00;;;;;;5095597;28;20051;-66
2021/06/03 03:35:07;;;;;;;0.50;0.40;;;17.70;68.90;;;;;;5114056;28;20039;-66
2021/06/03 03:37:35;;;;;;;0.32;0.32;;;17.70;68.90;;;;;;5113587;28;20062;-66
2021/06/03 03:40:03;;;;;;;0.47;0.47;;;17.60;69.10;;;;;;5113791;28;20192;-66
2021/06/03 03:42:29;;;;;;;0.30;0.30;;;17.60;69.20;;;;;;5104419;28;20638;-66
2021/06/03 03:44:55;;;;;;;0.40;0.38;;;17.60;69.20;;;;;;5113904;28;20130;-65
2021/06/03 03:47:22;;;;;;;0.30;0.30;;;17.60;69.10;;;;;;5113477;28;20564;-65
2021/06/03 03:49:48;;;;;;;0.50;0.45;;;17.60;69.20;;;;;;5113965;28;20197;-66
2021/06/03 03:52:16;;;;;;;0.40;0.40;;;17.50;69.20;;;;;;5113774;28;20048;-66
2021/06/03 03:54:42;;;;;;;0.43;0.43;;;17.50;69.40;;;;;;5113599;28;20384;-65
2021/06/03 03:57:10;;;;;;;0.40;0.40;;;17.50;69.30;;;;;;5113747;28;20048;-66
2021/06/03 03:59:37;;;;;;;0.50;0.50;;;17.50;69.40;;;;;;5109988;28;20177;-65
2021/06/03 04:02:04;;;;;;;0.40;0.40;;;17.50;69.40;;;;;;5114068;28;20131;-66
2021/06/03 04:04:30;;;;;;;0.40;0.40;;;17.50;69.50;;;;;;5112161;28;20802;-65
2021/06/03 04:06:57;;;;;;;0.50;0.30;;;17.40;69.40;;;;;;5112973;28;20052;-65
2021/06/03 04:09:24;;;;;;;0.40;0.40;;;17.50;69.50;;;;;;5132885;27;20055;-66
2021/06/03 04:11:51;;;;;;;0.43;0.43;;;17.40;69.50;;;;;;5132780;27;20160;-65
2021/06/03 04:14:17;;;;;;;0.30;0.30;;;17.40;70.70;;;;;;5132999;27;20427;-65
2021/06/03 04:16:43;;;;;;;0.38;0.30;;;17.40;69.80;;;;;;5126452;27;20466;-66
2021/06/03 04:19:10;;;;;;;0.32;0.32;;;17.30;70.00;;;;;;5125885;27;20051;-65
2021/06/03 04:21:36;;;;;;;0.30;0.30;;;17.30;70.20;;;;;;5129445;27;20129;-66
2021/06/03 04:24:03;;;;;;;0.30;0.30;;;17.30;70.10;;;;;;5127304;27;20165;-66
2021/06/03 04:26:30;;;;;;;0.30;0.30;;;17.30;70.20;;;;;;5123498;27;20055;-66
2021/06/03 04:28:56;;;;;;;0.50;0.50;;;17.30;70.20;;;;;;5122002;27;20088;-66
2021/06/03 04:31:22;;;;;;;0.28;0.28;;;17.30;70.20;;;;;;5122002;27;20047;-66
2021/06/03 04:33:49;;;;;;;0.30;0.30;;;17.30;70.10;;;;;;5128475;27;20142;-64
2021/06/03 04:36:15;;;;;;;0.32;0.32;;;17.30;70.10;;;;;;5112957;27;20039;-65
2021/06/03 04:38:41;;;;;;;0.30;0.30;;;17.30;70.20;;;;;;5118419;27;20516;-65
2021/06/03 04:41:08;;;;;;;0.50;0.50;;;17.30;70.10;;;;;;5112034;28;20126;-66
2021/06/03 04:43:34;;;;;;;0.32;0.30;;;17.30;70.10;;;;;;5112787;28;20558;-65
2021/06/03 04:46:01;;;;;;;0.22;0.22;;;17.40;70.10;;;;;;5115832;27;20126;-65
2021/06/03 04:48:27;;;;;;;0.20;0.20;;;17.30;70.10;;;;;;5094856;28;20045;-65
2021/06/03 04:50:53;;;;;;;0.30;0.30;;;17.40;70.10;;;;;;5114566;27;20100;-65
2021/06/03 04:53:20;;;;;;;0.40;0.40;;;17.40;70.10;;;;;;5112784;27;20566;-65
2021/06/03 04:55:46;;;;;;;0.20;0.20;;;17.40;70.00;;;;;;5114912;27;20050;-65
2021/06/03 04:58:13;;;;;;;0.40;0.40;;;17.40;70.20;;;;;;5111623;27;20048;-68
2021/06/03 05:00:42;;;;;;;0.40;0.40;;;17.40;70.30;;;;;;5113017;27;20165;-68
2021/06/03 05:03:10;;;;;;;0.38;0.38;;;17.40;70.30;;;;;;5103170;27;20044;-68
2021/06/03 05:05:37;;;;;;;0.30;0.30;;;17.50;70.30;;;;;;5093752;28;20152;-67
2021/06/03 05:08:05;;;;;;;0.38;0.38;;;17.50;70.50;;;;;;5104177;28;20130;-67
2021/06/03 05:10:31;;;;;;;0.43;0.43;;;17.50;70.30;;;;;;5115997;28;20047;-67
2021/06/03 05:12:59;;;;;;;0.30;0.30;;;17.50;70.50;;;;;;5121121;27;20047;-67
2021/06/03 05:15:26;;;;;;;0.40;0.40;;;17.50;70.40;;;;;;5116326;27;20048;-67
2021/06/03 05:17:54;;;;;;;0.20;0.20;;;17.50;70.40;;;;;;5118385;28;20130;-68
2021/06/03 05:20:24;;;;;;;0.35;0.35;;;17.60;70.50;;;;;;5117048;28;20040;-68
2021/06/03 05:22:52;;;;;;;0.60;0.40;;;17.60;70.50;;;;;;5118535;28;20054;-67
2021/06/03 05:25:23;;;;;;;0.35;0.35;;;17.60;70.40;;;;;;5117759;28;20055;-67
2021/06/03 05:27:49;;;;;;;0.20;0.20;;;17.60;70.30;;;;;;5117685;28;20058;-67
2021/06/03 05:30:18;;;;;;;0.30;0.30;;;17.70;70.20;;;;;;5118601;28;20177;-67
2021/06/03 05:32:45;;;;;;;0.32;0.32;;;17.70;70.10;;;;;;5113525;28;20071;-67
2021/06/03 05:35:14;;;;;;;0.47;0.47;;;17.70;70.40;;;;;;5115322;28;20051;-67
2021/06/03 05:37:42;;;;;;;0.40;0.40;;;17.80;70.10;;;;;;5105081;28;20124;-67
2021/06/03 05:40:10;;;;;;;0.40;0.40;;;17.80;70.00;;;;;;5122408;27;20459;-66
2021/06/03 05:42:36;;;;;;;0.35;0.35;;;17.80;70.10;;;;;;5106124;27;20100;-66
2021/06/03 05:45:05;;;;;;;0.30;0.30;;;17.80;70.00;;;;;;5119516;27;20051;-62
2021/06/03 05:47:31;;;;;;;0.40;0.30;;;17.70;69.90;;;;;;5123911;27;20138;-62
2021/06/03 05:49:58;;;;;;;0.32;0.32;;;17.80;69.90;;;;;;5119853;27;20128;-62
2021/06/03 05:52:24;;;;;;;0.15;0.15;;;17.80;69.90;;;;;;5123399;27;20139;-62
2021/06/03 05:54:51;;;;;;;0.20;0.20;;;17.80;69.90;;;;;;5118756;27;20043;-62
2021/06/03 05:57:17;;;;;;;0.30;0.30;;;17.80;69.90;;;;;;5120343;27;20124;-62
2021/06/03 05:59:44;;;;;;;0.30;0.30;;;17.80;70.90;;;;;;5119519;27;20075;-62
2021/06/03 06:02:17;;;;;;;0.40;0.40;;;17.90;70.10;;;;;;5119486;27;20220;-62
2021/06/03 06:07:29;;;;;;;0.40;0.40;;;18.00;70.00;;;;;;5121764;27;20542;-62
2021/06/03 06:09:56;;;;;;;0.40;0.40;;;18.00;69.90;;;;;;5125971;27;20431;-62
2021/06/03 06:12:22;;;;;;;0.30;0.30;;;18.00;69.70;;;;;;5123920;27;20513;-63
2021/06/03 06:14:48;;;;;;;0.40;0.40;;;18.10;69.70;;;;;;5129944;27;20123;-62
2021/06/03 06:17:14;;;;;;;0.30;0.30;;;18.10;69.70;;;;;;5126686;27;20128;-63
2021/06/03 06:19:41;;;;;;;0.28;0.28;;;18.20;69.80;;;;;;5128918;27;20081;-63
2021/06/03 06:22:07;;;;;;;0.40;0.38;;;18.30;69.60;;;;;;5128782;27;20093;-63
2021/06/03 06:24:34;;;;;;;0.40;0.40;;;18.40;69.50;;;;;;5125064;27;20232;-63
2021/06/03 06:27:01;;;;;;;0.40;0.40;;;18.50;69.40;;;;;;5129295;27;20058;-62
2021/06/03 06:29:28;;;;;;;0.68;0.38;;;18.60;69.30;;;;;;5123721;27;20120;-62
2021/06/03 06:31:54;;;;;;;0.40;0.40;;;18.70;69.00;;;;;;5124772;27;20043;-62
2021/06/03 06:34:21;;;;;;;0.40;0.40;;;18.80;68.80;;;;;;5111120;27;20109;-63
2021/06/03 06:36:47;;;;;;;0.40;0.40;;;18.80;68.50;;;;;;5113348;28;20047;-62
2021/06/03 06:39:17;;;;;;;0.32;0.32;;;18.80;67.90;;;;;;5113945;28;20039;-62
2021/06/03 06:41:44;;;;;;;0.25;0.25;;;18.80;67.80;;;;;;5113220;28;20043;-62
2021/06/03 06:44:11;;;;;;;0.40;0.40;;;18.80;68.80;;;;;;5106288;27;20122;-64
2021/06/03 06:46:37;;;;;;;0.52;0.52;;;18.80;67.90;;;;;;5096448;28;20174;-62
2021/06/03 06:49:03;;;;;;;0.40;0.40;;;18.70;67.80;;;;;;5094649;27;20040;-63
2021/06/03 06:51:30;;;;;;;0.47;0.40;;;18.70;67.80;;;;;;5093960;27;20040;-63
2021/06/03 06:53:56;;;;;;;0.30;0.30;;;18.70;67.70;;;;;;5092970;28;20072;-62
2021/06/03 06:56:22;;;;;;;0.40;0.40;;;18.80;67.90;;;;;;5099643;27;20040;-63
2021/06/03 06:58:49;;;;;;;0.38;0.38;;;18.80;67.80;;;;;;5096707;27;20533;-63
2021/06/03 07:01:15;;;;;;;0.40;0.40;;;18.80;67.80;;;;;;5098795;27;20122;-65
2021/06/03 07:03:41;;;;;;;0.47;0.30;;;18.80;67.80;;;;;;5096159;27;20051;-62
2021/06/03 07:06:08;;;;;;;0.47;0.38;;;18.90;67.90;;;;;;5096979;27;20535;-63
2021/06/03 07:08:34;;;;;;;0.30;0.30;;;18.90;67.90;;;;;;5115059;27;20107;-62
2021/06/03 07:11:00;;;;;;;0.30;0.30;;;19.00;67.80;;;;;;5104336;27;20123;-62
2021/06/03 07:13:27;;;;;;;0.30;0.30;;;19.00;67.70;;;;;;5114402;27;20097;-62
2021/06/03 07:15:54;;;;;;;0.20;0.20;;;19.00;67.50;;;;;;5099117;27;20044;-62
2021/06/03 07:18:21;;;;;;;0.40;0.40;;;19.00;67.40;;;;;;5096832;27;20126;-63
2021/06/03 07:20:48;;;;;;;0.68;0.55;;;19.00;67.40;;;;;;5100482;27;20044;-62
2021/06/03 07:23:15;;;;;;;0.40;0.40;;;19.10;67.50;;;;;;5118631;27;20044;-63
2021/06/03 07:25:42;;;;;;;0.40;0.40;;;19.10;67.60;;;;;;5093954;27;20180;-63
2021/06/03 07:28:09;;;;;;;0.20;0.20;;;19.20;67.60;;;;;;5095025;27;20071;-63
2021/06/03 07:30:36;;;;;;;0.50;0.50;;;19.30;67.60;;;;;;5092511;28;20040;-63
2021/06/03 07:33:04;;;;;;;0.55;0.50;;;19.50;67.40;;;;;;5095581;27;20165;-63
2021/06/03 07:35:32;;;;;;;0.40;0.40;;;19.70;67.20;;;;;;5096528;27;20048;-63
2021/06/03 07:37:59;;;;;;;0.50;0.50;;;19.90;67.00;;;;;;5093296;27;20071;-63
2021/06/03 07:40:29;;;;;;;0.30;0.30;;;20.00;66.60;;;;;;5092513;27;20092;-63
2021/06/03 07:42:56;;;;;;;0.30;0.30;;;20.20;66.30;;;;;;5097024;27;20057;-63
2021/06/03 07:45:25;;;;;;;0.30;0.25;;;20.30;65.70;;;;;;5100024;27;20055;-63
2021/06/03 07:47:53;;;;;;;0.40;0.30;;;20.50;65.30;;;;;;5095386;27;20127;-63
2021/06/03 07:50:19;;;;;;;0.35;0.35;;;20.60;65.10;;;;;;5095832;27;20136;-63
2021/06/03 07:52:46;;;;;;;0.25;0.25;;;20.70;64.50;;;;;;5094115;27;20136;-63
2021/06/03 07:55:14;;;;;;;0.32;0.32;;;20.80;64.10;;;;;;5093204;27;20043;-63
2021/06/03 07:57:43;;;;;;;0.40;0.38;;;20.80;63.90;;;;;;5090138;28;20510;-63
2021/06/03 08:00:11;;;;;;;0.45;0.45;;;20.70;63.70;;;;;;5078870;28;20083;-63
2021/06/03 08:02:38;;;;;;;0.30;0.30;;;20.70;63.60;;;;;;5102858;27;20091;-63
2021/06/03 08:05:06;;;;;;;0.32;0.32;;;20.70;63.60;;;;;;5115194;27;20040;-63
2021/06/03 08:07:33;;;;;;;0.40;0.40;;;20.70;63.30;;;;;;5117314;27;20577;-63
2021/06/03 08:09:59;;;;;;;0.40;0.40;;;20.70;63.20;;;;;;5115972;27;20062;-63
2021/06/03 08:12:26;;;;;;;0.43;0.43;;;20.80;63.20;;;;;;5115912;27;20088;-63
2021/06/03 08:14:52;;;;;;;0.40;0.40;;;20.80;63.10;;;;;;5116916;27;20402;-63
2021/06/03 08:17:18;;;;;;;0.30;0.30;;;20.70;62.20;;;;;;5115268;27;20126;-63
2021/06/03 08:19:45;;;;;;;0.38;0.38;;;20.80;62.60;;;;;;5116748;27;20096;-64
2021/06/03 08:22:11;;;;;;;0.55;0.40;;;20.80;62.30;;;;;;5114901;27;20052;-63
2021/06/03 08:24:37;;;;;;;0.28;0.28;;;20.90;62.30;;;;;;5116908;27;20051;-63
2021/06/03 08:27:04;;;;;;;0.40;0.40;;;21.00;62.20;;;;;;5114922;27;20047;-63
2021/06/03 08:29:30;;;;;;;0.40;0.40;;;21.00;60.70;;;;;;5115699;27;20116;-63
2021/06/03 08:31:57;;;;;;;0.38;0.38;;;20.90;60.50;;;;;;5096455;28;20115;-63
2021/06/03 08:34:24;;;;;;;0.47;0.40;;;20.80;60.60;;;;;;5114261;27;20079;-63
2021/06/03 08:36:50;;;;;;;0.52;0.52;;;20.60;60.90;;;;;;5111750;28;20096;-63
2021/06/03 08:39:17;;;;;;;0.38;0.30;;;20.50;61.20;;;;;;5112320;28;20048;-63
2021/06/03 08:41:47;;;;;;;0.35;0.30;;;20.40;61.60;;;;;;5112462;28;20130;-63
2021/06/03 08:44:14;;;;;;;0.52;0.45;;;20.30;61.80;;;;;;5112218;28;20180;-62
2021/06/03 08:46:41;;;;;;;0.50;0.30;;;20.20;62.20;;;;;;5111284;28;20070;-63
2021/06/03 08:49:09;;;;;;;0.25;0.25;;;20.20;62.40;;;;;;5111551;28;20040;-63
2021/06/03 08:51:36;;;;;;;0.30;0.30;;;20.10;62.50;;;;;;5112375;28;20518;-62
2021/06/03 08:54:03;;;;;;;0.30;0.30;;;20.10;62.80;;;;;;5111333;27;20882;-63
2021/06/03 08:56:29;;;;;;;0.30;0.30;;;20.10;63.00;;;;;;5113579;27;20130;-63
2021/06/03 08:59:00;;;;;;;0.40;0.40;;;20.00;63.00;;;;;;5111225;28;20039;-63
2021/06/03 09:01:29;;;;;;;0.20;0.20;;;20.00;63.20;;;;;;5111925;28;20047;-63
2021/06/03 09:03:56;;;;;;;0.40;0.40;;;19.90;63.40;;;;;;5111290;28;20052;-62
2021/06/03 09:06:23;;;;;;;0.35;0.35;;;19.90;63.50;;;;;;5111751;28;20479;-63
2021/06/03 09:08:59;;;;;;;0.30;0.30;;;19.80;63.60;;;;;;5111309;28;20055;-63
2021/06/03 09:11:28;;;;;;;0.40;0.40;;;19.70;63.80;;;;;;5111613;28;20160;-63
2021/06/03 09:13:57;;;;;;;0.40;0.40;;;19.70;64.00;;;;;;5111508;28;20165;-63
2021/06/03 09:16:29;;;;;;;0.50;0.50;;;19.60;64.30;;;;;;5111306;28;20410;-63
2021/06/03 09:19:09;;;;;;;0.45;0.38;;;19.50;64.80;;;;;;5111576;28;20058;-63
2021/06/03 09:21:47;;;;;;;0.40;0.40;;;19.40;65.10;;;;;;5110751;28;20079;-61
2021/06/03 09:24:16;;;;;;;0.60;0.60;;;19.30;65.70;;;;;;5111525;28;20047;-65
2021/06/03 09:26:46;;;;;;;0.63;0.40;;;19.20;66.50;;;;;;5111512;28;20153;-65
2021/06/03 09:29:14;;;;;;;0.88;0.30;;;19.00;66.70;;;;;;5111177;28;20040;-65
2021/06/03 09:31:41;;;;;;;0.22;0.22;;;19.00;67.10;;;;;;5111142;28;20080;-65
2021/06/03 09:34:15;;;;;;;0.25;0.25;;;19.00;67.20;;;;;;5111159;28;20498;-65
2021/06/03 09:36:47;;;;;;;0.30;0.30;;;18.90;67.40;;;;;;5112289;28;20126;-65
2021/06/03 09:39:30;;;;;;;0.30;0.30;;;18.90;67.80;;;;;;5111704;28;20047;-64
2021/06/03 09:42:00;;;;;;;0.50;0.47;;;18.90;69.30;;;;;;5110645;28;20109;-65
2021/06/03 09:44:38;;;;;;;1.05;0.65;;;18.80;69.80;;;;;;5120425;28;20046;-65
2021/06/03 09:47:12;;;;;;;0.40;0.40;;;18.80;70.20;;;;;;5115369;28;20087;-65
2021/06/03 09:49:59;;;;;;;0.57;0.50;;;18.70;70.30;;;;;;5111575;28;20047;-67
2021/06/03 09:52:28;;;;;;;0.40;0.40;;;18.70;71.40;;;;;;5111074;28;20126;-67
2021/06/03 09:54:58;;;;;;;0.60;0.60;;;18.60;72.10;;;;;;5093268;28;20094;-65
2021/06/03 09:57:30;;;;;;;0.47;0.40;;;18.60;72.20;;;;;;5112221;28;20090;-65
2021/06/03 10:00:19;;;;;;;0.50;0.40;;;18.60;72.30;;;;;;5111104;28;20048;-65
2021/06/03 10:02:46;;;;;;;0.43;0.43;;;18.50;72.70;;;;;;5110394;28;20126;-65
2021/06/03 10:05:17;;;;;;;0.45;0.45;;;18.50;73.00;;;;;;5111063;28;20423;-65
2021/06/03 10:08:05;;;;;;;0.50;0.50;;;18.50;73.20;;;;;;5104265;28;20052;-65
2021/06/03 10:10:35;;;;;;;0.52;0.50;;;18.50;73.30;;;;;;5111824;28;20089;-65
2021/06/03 10:13:09;;;;;;;0.47;0.47;;;18.50;73.70;;;;;;5090074;28;20132;-65
2021/06/03 10:15:38;;;;;;;0.40;0.40;;;18.50;73.80;;;;;;5107341;28;20506;-64
2021/06/03 10:18:24;;;;;;;0.50;0.50;;;18.50;74.20;;;;;;5118096;28;20054;-65
2021/06/03 10:20:53;;;;;;;0.50;0.50;;;18.50;74.00;;;;;;5108408;28;20502;-65
2021/06/03 10:23:28;;;;;;;0.60;0.50;;;18.50;74.20;;;;;;5094925;28;20372;-65
2021/06/03 10:25:59;;;;;;;0.30;0.30;;;18.60;74.30;;;;;;5102199;28;20158;-65
2021/06/03 10:28:26;;;;;;;0.45;0.45;;;18.60;74.20;;;;;;5111579;27;20219;-65
2021/06/03 10:30:55;;;;;;;0.50;0.50;;;18.60;74.20;;;;;;5113962;27;20109;-65
2021/06/03 10:33:25;;;;;;;0.70;0.70;;;18.60;74.70;;;;;;5115910;27;20108;-65
2021/06/03 10:35:55;;;;;;;0.50;0.50;;;18.60;75.90;;;;;;5111165;28;20059;-65
2021/06/03 10:38:22;;;;;;;0.65;0.50;;;18.60;74.60;;;;;;5111043;28;20165;-65
2021/06/03 10:40:57;;;;;;;0.32;0.30;;;18.70;74.70;;;;;;5111073;28;20106;-65
2021/06/03 10:43:27;;;;;;;0.22;0.22;;;18.70;74.70;;;;;;5111026;28;20051;-65
2021/06/03 10:45:53;;;;;;;0.40;0.40;;;18.70;74.80;;;;;;5096837;28;20499;-64
2021/06/03 10:48:20;;;;;;;0.50;0.50;;;18.80;74.80;;;;;;5110221;28;20075;-65
2021/06/03 10:50:51;;;;;;;0.50;0.50;;;18.80;74.90;;;;;;5110582;28;20046;-64
2021/06/03 10:53:28;;;;;;;0.40;0.40;;;18.80;74.90;;;;;;5110690;28;20135;-65
2021/06/03 10:56:11;;;;;;;0.30;0.30;;;18.90;75.00;;;;;;5107428;28;20050;-65
2021/06/03 10:58:40;;;;;;;0.40;0.40;;;19.00;75.00;;;;;;5109570;28;20083;-65
2021/06/03 11:01:08;;;;;;;0.38;0.38;;;19.00;75.10;;;;;;5110662;28;20095;-65
2021/06/03 11:03:48;;;;;;;0.40;0.40;;;19.10;75.00;;;;;;5110344;28;20180;-65
2021/06/03 11:06:18;;;;;;;0.40;0.40;;;19.10;74.70;;;;;;5110619;28;20123;-65
2021/06/03 11:08:47;;;;;;;0.30;0.30;;;19.10;74.60;;;;;;5110089;28;21015;-65
2021/06/03 11:11:13;;;;;;;0.32;0.32;;;19.10;74.60;;;;;;5110210;28;20099;-65
2021/06/03 11:13:45;;;;;;;0.32;0.32;;;19.10;74.50;;;;;;5110251;28;20523;-65
2021/06/03 11:16:51;;;;;;;0.40;0.40;;;19.10;74.60;;;;;;5110140;28;20181;-65
2021/06/03 11:19:29;;;;;;;0.40;0.40;;;19.10;74.50;;;;;;5027408;28;20046;-65
2021/06/03 11:22:01;;;;;;;0.40;0.40;;;19.10;75.50;;;;;;5046885;28;20135;-65
2021/06/03 11:24:27;;;;;;;0.43;0.43;;;19.10;74.60;;;;;;5046074;28;20520;-65
2021/06/03 11:26:55;;;;;;;0.40;0.40;;;19.10;74.50;;;;;;5036923;28;20093;-65
2021/06/03 11:29:55;;;;;;;0.30;0.30;;;19.10;74.50;;;;;;5033551;28;20052;-65
2021/06/03 11:32:28;;;;;;;0.40;0.40;;;19.10;74.50;;;;;;5046352;28;20083;-65
2021/06/03 11:34:56;;;;;;;0.50;0.50;;;19.10;74.50;;;;;;5046295;28;20562;-65
2021/06/03 11:37:24;;;;;;;0.30;0.30;;;19.10;74.50;;;;;;5019038;28;20044;-65
2021/06/03 11:40:10;;;;;;;0.40;0.40;;;19.10;74.70;;;;;;5046317;28;20520;-65
2021/06/03 11:42:41;;;;;;;0.35;0.35;;;19.20;74.90;;;;;;5021003;28;20057;-65
2021/06/03 11:45:40;;;;;;;0.40;0.40;;;19.20;75.20;;;;;;5046198;28;20060;-65
2021/06/03 11:48:14;;;;;;;0.40;0.40;;;19.40;75.40;;;;;;5046263;28;20539;-65
2021/06/03 11:50:49;;;;;;;0.38;0.38;;;19.50;75.30;;;;;;5045947;28;20480;-67
2021/06/03 11:53:28;;;;;;;0.60;0.30;;;19.80;75.00;;;;;;5085896;27;20134;-65
2021/06/03 11:56:16;;;;;;;0.30;0.30;;;19.90;74.40;;;;;;5112825;27;20046;-65
2021/06/03 11:58:43;;;;;;;0.22;0.22;;;20.10;74.10;;;;;;5112347;28;20050;-65
2021/06/03 12:01:15;;;;;;;0.50;0.50;;;20.20;73.90;;;;;;5127073;27;20075;-65
2021/06/03 12:03:46;;;;;;;0.40;0.40;;;20.40;73.50;;;;;;5113098;28;20051;-65
2021/06/03 12:06:39;;;;;;;0.50;0.40;;;20.50;72.50;;;;;;5112652;28;20054;-65
2021/06/03 12:09:18;;;;;;;0.50;0.50;;;20.60;72.10;;;;;;5112529;28;20549;-65
2021/06/03 12:11:57;;;;;;;0.30;0.30;;;20.70;69.70;;;;;;5109029;28;20044;-65
2021/06/03 12:14:28;;;;;;;0.22;0.22;;;20.70;69.80;;;;;;5096878;27;20529;-65
2021/06/03 12:16:59;;;;;;;0.10;0.10;;;20.80;70.00;;;;;;5129636;27;20088;-65
2021/06/03 12:19:27;;;;;;;0.20;0.20;;;20.90;69.90;;;;;;5126231;27;20055;-65
2021/06/03 12:21:56;;;;;;;0.20;0.20;;;20.90;69.50;;;;;;5113097;27;20044;-65
2021/06/03 12:24:43;;;;;;;0.22;0.20;;;20.90;69.50;;;;;;5108906;27;20516;-65
2021/06/03 12:27:26;;;;;;;0.10;0.10;;;20.90;69.30;;;;;;5102459;27;20113;-65
2021/06/03 12:29:54;;;;;;;0.20;0.20;;;20.80;68.90;;;;;;5111997;27;20043;-65
2021/06/03 12:32:22;;;;;;;0.20;0.20;;;20.90;68.90;;;;;;5112530;27;20044;-65
2021/06/03 12:34:49;;;;;;;0.32;0.30;;;20.80;68.80;;;;;;5112509;27;20048;-65
2021/06/03 12:37:17;;;;;;;0.30;0.30;;;20.80;69.00;;;;;;5111042;28;20120;-65
2021/06/03 12:39:44;;;;;;;0.20;0.20;;;20.70;69.00;;;;;;5111896;28;20059;-64
2021/06/03 12:42:10;;;;;;;0.20;0.20;;;20.70;69.00;;;;;;5111801;28;20118;-65
2021/06/03 12:44:36;;;;;;;0.20;0.20;;;20.60;68.80;;;;;;5111301;28;20083;-65
2021/06/03 12:47:07;;;;;;;0.20;0.20;;;20.60;69.00;;;;;;5111599;28;20047;-65
2021/06/03 12:49:34;;;;;;;;;;;20.50;68.90;;;;;;5112341;28;20506;-65
2021/06/03 12:52:06;;;;;;;0.25;0.20;;;20.50;69.00;;;;;;5110713;28;20006;-64
2021/06/03 12:54:40;;;;;;;0.22;0.22;;;20.40;69.00;;;;;;5111632;28;20138;-65
2021/06/03 12:57:10;;;;;;;0.30;0.30;;;20.40;70.10;;;;;;5113335;28;20126;-65
2021/06/03 12:59:39;;;;;;;0.40;0.40;;;20.30;69.50;;;;;;5111755;28;20558;-65
2021/06/03 13:02:07;;;;;;;0.20;0.20;;;20.30;69.70;;;;;;5111513;28;20059;-65